Time,TemperatureF,DewpointF,PressureIn,WindDirection,WindDirectionDegrees,WindSpeedMPH,WindSpeedGustMPH,Humidity,HourlyPrecipIn,Conditions,Clouds,dailyrainin,SolarRadiationWatts/m^2,SoftwareType,DateUTC
2013-05-08 00:00:00,57.7,50.2,30.00,SSW,205,0.0,0.0,76,0.00,BKN,OVC,0.00,0.0,WeatherDisplay:10.37,2013-05-07 22:00:00,
2013-05-08 00:10:00,57.9,50.8,30.00,SSW,195,0.0,0.0,77,0.00,BKN,OVC,0.00,0.0,WeatherDisplay:10.37,2013-05-07 22:10:00,
2013-05-08 00:20:00,57.9,50.8,30.00,SSW,199,0.0,0.0,77,0.00,BKN,OVC,0.00,0.0,WeatherDisplay:10.37,2013-05-07 22:20:00,
2013-05-08 00:30:00,57.7,50.6,30.00,SSW,205,0.0,0.0,77,0.00,BKN,OVC,0.00,0.0,WeatherDisplay:10.37,2013-05-07 22:30:00,
2013-05-08 00:40:00,57.4,50.2,30.00,SSW,199,0.0,0.0,77,0.00,BKN,OVC,0.00,0.0,WeatherDisplay:10.37,2013-05-07 22:40:00,
2013-05-08 00:50:00,57.2,50.4,30.00,NE,40,0.0,0.0,78,0.00,BKN,OVC,0.00,0.0,WeatherDisplay:10.37,2013-05-07 22:50:00,
2013-05-08 01:00:00,57.6,50.8,30.00,South,191,0.0,0.0,78,0.00,BKN,OVC,0.00,0.0,WeatherDisplay:10.37,2013-05-07 23:00:00,
2013-05-08 01:10:00,57.7,50.9,30.00,SSW,194,0.0,0.0,78,0.00,BKN,OVC,0.00,0.0,WeatherDisplay:10.37,2013-05-07 23:10:00,
2013-05-08 01:20:00,57.7,50.9,30.00,SW,220,0.0,0.0,78,0.00,BKN,OVC,0.00,0.0,WeatherDisplay:10.37,2013-05-07 23:20:00,
2013-05-08 01:30:00,57.9,51.1,30.00,SSW,208,0.0,0.0,78,0.00,BKN,OVC,0.00,0.0,WeatherDisplay:10.37,2013-05-07 23:30:00,
2013-05-08 01:40:00,57.6,50.8,30.00,SSW,199,0.0,0.0,78,0.00,BKN,OVC,0.00,0.0,WeatherDisplay:10.37,2013-05-07 23:40:00,
2013-05-08 01:50:00,57.4,50.6,30.00,SSE,168,0.0,0.0,78,0.00,BKN,OVC,0.00,0.0,WeatherDisplay:10.37,2013-05-07 23:50:00,
2013-05-08 02:00:00,57.2,50.4,30.00,SSE,160,0.0,0.0,78,0.00,BKN,OVC,0.00,0.0,WeatherDisplay:10.37,2013-05-08 00:00:00,
2013-05-08 02:10:00,56.8,50.1,30.00,SW,224,0.0,0.0,78,0.00,BKN,OVC,0.00,0.0,WeatherDisplay:10.37,2013-05-08 00:10:00,
2013-05-08 02:20:00,56.5,49.7,30.00,SW,219,0.0,0.0,78,0.00,BKN,OVC,0.00,0.0,WeatherDisplay:10.37,2013-05-08 00:20:00,
2013-05-08 02:30:00,56.3,49.5,30.00,SW,214,0.0,0.0,78,0.00,BKN,OVC,0.00,0.0,WeatherDisplay:10.37,2013-05-08 00:30:00,
2013-05-08 02:40:00,56.3,49.5,30.00,WSW,244,0.0,0.0,78,0.00,BKN,OVC,0.00,0.0,WeatherDisplay:10.37,2013-05-08 00:40:00,
2013-05-08 02:50:00,56.5,49.7,30.00,SW,215,0.0,1.0,78,0.00,BKN,OVC,0.00,0.0,WeatherDisplay:10.37,2013-05-08 00:50:00,
2013-05-08 03:00:00,56.5,49.7,30.00,WSW,238,0.0,0.0,78,0.00,BKN,OVC,0.00,0.0,WeatherDisplay:10.37,2013-05-08 01:00:00,
2013-05-08 03:10:00,56.3,49.5,30.00,WSW,240,0.0,0.0,78,0.00,CLR,OVC,0.00,0.0,WeatherDisplay:10.37,2013-05-08 01:10:00,
2013-05-08 03:20:00,56.1,49.4,30.00,WSW,257,0.0,0.0,78,0.00,CLR,OVC,0.00,0.0,WeatherDisplay:10.37,2013-05-08 01:20:00,
2013-05-08 03:30:00,55.9,49.2,29.97,West,260,0.0,0.0,78,0.00,CLR,OVC,0.00,0.0,WeatherDisplay:10.37,2013-05-08 01:30:00,
2013-05-08 03:40:00,56.1,49.4,29.97,West,275,0.0,0.0,78,0.00,CLR,OVC,0.00,0.0,WeatherDisplay:10.37,2013-05-08 01:40:00,
2013-05-08 03:50:00,56.3,49.9,29.97,South,185,0.0,0.0,79,0.00,CLR,OVC,0.00,0.0,WeatherDisplay:10.37,2013-05-08 01:50:00,
2013-05-08 04:00:00,56.3,49.5,30.00,ESE,118,0.0,0.0,78,0.00,CLR,OVC,0.00,0.0,WeatherDisplay:10.37,2013-05-08 02:00:00,
2013-05-08 04:10:00,56.5,50.0,30.00,NE,39,0.0,0.0,79,0.00,CLR,OVC,0.00,0.0,WeatherDisplay:10.37,2013-05-08 02:10:00,
2013-05-08 04:20:00,56.5,50.0,29.97,North,356,0.0,0.0,79,0.00,CLR,OVC,0.00,0.0,WeatherDisplay:10.37,2013-05-08 02:20:00,
2013-05-08 04:30:00,56.3,49.9,29.97,NE,55,0.0,0.0,79,0.00,CLR,OVC,0.00,0.0,WeatherDisplay:10.37,2013-05-08 02:30:00,
2013-05-08 04:40:00,55.8,49.3,29.97,WSW,244,0.0,0.0,79,0.00,CLR,OVC,0.00,0.0,WeatherDisplay:10.37,2013-05-08 02:40:00,
2013-05-08 04:50:00,55.0,48.6,30.00,East,100,0.0,0.0,79,0.00,CLR,OVC,0.00,0.0,WeatherDisplay:10.37,2013-05-08 02:50:00,
2013-05-08 05:00:00,54.9,48.5,30.00,NNE,25,0.0,0.0,79,0.00,OVC,OVC,0.00,0.0,WeatherDisplay:10.37,2013-05-08 03:00:00,
2013-05-08 05:10:00,54.1,47.4,30.00,NNE,26,0.0,0.0,78,0.00,OVC,OVC,0.00,0.0,WeatherDisplay:10.37,2013-05-08 03:10:00,
2013-05-08 05:20:00,53.6,47.2,29.97,South,175,0.0,0.0,79,0.00,OVC,OVC,0.00,0.0,WeatherDisplay:10.37,2013-05-08 03:20:00,
2013-05-08 05:30:00,53.6,47.2,29.97,South,175,0.0,0.0,79,0.00,OVC,OVC,0.00,0.0,WeatherDisplay:10.37,2013-05-08 03:30:00,
2013-05-08 05:40:00,52.5,46.2,29.97,ENE,71,0.0,0.0,79,0.00,OVC,OVC,0.00,0.0,WeatherDisplay:10.37,2013-05-08 03:40:00,
2013-05-08 05:50:00,52.7,46.4,30.00,East,92,0.0,0.0,79,0.00,OVC,OVC,0.00,0.0,WeatherDisplay:10.37,2013-05-08 03:50:00,
2013-05-08 06:00:00,53.2,46.9,30.00,ESE,104,0.0,0.0,79,0.00,OVC,OVC,0.00,0.0,WeatherDisplay:10.37,2013-05-08 04:00:00,
2013-05-08 06:10:00,52.7,46.4,30.00,WNW,282,0.0,0.0,79,0.00,OVC,OVC,0.00,0.0,WeatherDisplay:10.37,2013-05-08 04:10:00,
2013-05-08 06:20:00,52.5,46.2,30.00,East,79,0.0,0.0,79,0.00,OVC,OVC,0.00,0.0,WeatherDisplay:10.37,2013-05-08 04:20:00,
2013-05-08 06:30:00,53.1,46.7,30.00,East,90,0.0,0.0,79,0.00,OVC,OVC,0.00,0.0,WeatherDisplay:10.37,2013-05-08 04:30:00,
2013-05-08 06:40:00,54.7,48.3,30.00,ESE,116,0.0,0.0,79,0.00,OVC,OVC,0.00,0.0,WeatherDisplay:10.37,2013-05-08 04:40:00,
2013-05-08 06:50:00,56.5,50.4,30.00,North,352,0.0,0.0,80,0.00,OVC,OVC,0.00,0.0,WeatherDisplay:10.37,2013-05-08 04:50:00,
2013-05-08 07:00:00,56.8,50.4,30.00,North,7,0.0,0.0,79,0.00,OVC,OVC,0.00,0.0,WeatherDisplay:10.37,2013-05-08 05:00:00,
2013-05-08 07:10:00,57.9,51.4,30.00,NE,34,0.0,0.0,79,0.00,BKN,OVC,0.00,0.0,WeatherDisplay:10.37,2013-05-08 05:10:00,
2013-05-08 07:20:00,59.9,53.4,30.00,SSW,213,0.0,0.0,79,0.00,BKN,OVC,0.00,0.0,WeatherDisplay:10.37,2013-05-08 05:20:00,
2013-05-08 07:30:00,60.8,54.2,30.00,SSW,208,0.0,0.0,79,0.00,BKN,OVC,0.00,0.0,WeatherDisplay:10.37,2013-05-08 05:30:00,
2013-05-08 07:40:00,61.2,53.9,30.00,SW,216,0.0,0.0,77,0.00,BKN,OVC,0.00,0.0,WeatherDisplay:10.37,2013-05-08 05:40:00,
2013-05-08 07:50:00,61.5,53.5,30.00,SW,220,0.0,3.0,75,0.00,BKN,OVC,0.00,0.0,WeatherDisplay:10.37,2013-05-08 05:50:00,
2013-05-08 08:00:00,61.5,52.8,30.00,SW,231,1.0,1.0,73,0.00,BKN,OVC,0.00,0.0,WeatherDisplay:10.37,2013-05-08 06:00:00,
2013-05-08 08:10:00,60.6,52.3,30.00,SW,234,0.0,1.0,74,0.00,BKN,OVC,0.00,0.0,WeatherDisplay:10.37,2013-05-08 06:10:00,
2013-05-08 08:20:00,60.3,52.3,30.00,WSW,252,0.0,1.0,75,0.00,BKN,OVC,0.00,0.0,WeatherDisplay:10.37,2013-05-08 06:20:00,
2013-05-08 08:30:00,60.6,52.6,30.03,SW,222,0.0,0.0,75,0.00,BKN,OVC,0.00,0.0,WeatherDisplay:10.37,2013-05-08 06:30:00,
2013-05-08 08:40:00,61.3,52.6,30.03,SW,220,0.0,4.0,73,0.00,BKN,OVC,0.00,0.0,WeatherDisplay:10.37,2013-05-08 06:40:00,
2013-05-08 08:50:00,62.2,53.5,30.03,SSW,200,2.0,2.0,73,0.00,BKN,OVC,0.00,0.0,WeatherDisplay:10.37,2013-05-08 06:50:00,
2013-05-08 09:00:00,63.9,54.7,30.03,SSW,197,0.0,2.0,72,0.00,BKN,OVC,0.00,0.0,WeatherDisplay:10.37,2013-05-08 07:00:00,
2013-05-08 09:10:00,66.0,55.2,30.03,SSW,205,0.0,3.0,68,0.00,BKN,OVC,0.00,0.0,WeatherDisplay:10.37,2013-05-08 07:10:00,
2013-05-08 09:20:00,66.9,55.2,30.03,WSW,257,0.0,0.0,66,0.00,BKN,OVC,0.00,0.0,WeatherDisplay:10.37,2013-05-08 07:20:00,
2013-05-08 09:30:00,67.1,55.4,30.00,WSW,254,1.0,1.0,66,0.00,BKN,OVC,0.00,0.0,WeatherDisplay:10.37,2013-05-08 07:30:00,
2013-05-08 09:40:00,64.8,53.5,30.00,WSW,253,5.0,5.0,67,0.00,BKN,OVC,0.00,0.0,WeatherDisplay:10.37,2013-05-08 07:40:00,
2013-05-08 09:50:00,64.8,53.5,30.03,SSW,193,8.0,8.0,67,0.00,BKN,OVC,0.00,0.0,WeatherDisplay:10.37,2013-05-08 07:50:00,
2013-05-08 10:00:00,64.8,53.5,30.03,SSW,197,3.0,8.0,67,0.00,BKN,OVC,0.00,0.0,WeatherDisplay:10.37,2013-05-08 08:00:00,
2013-05-08 10:10:00,65.8,54.2,30.03,South,186,3.0,3.0,66,0.00,BKN,OVC,0.00,0.0,WeatherDisplay:10.37,2013-05-08 08:10:00,
2013-05-08 10:20:00,65.5,53.8,30.03,WSW,245,5.0,5.0,66,0.00,BKN,OVC,0.00,0.0,WeatherDisplay:10.37,2013-05-08 08:20:00,
2013-05-08 10:30:00,66.0,53.9,30.03,WSW,239,3.0,5.0,65,0.00,BKN,OVC,0.00,0.0,WeatherDisplay:10.37,2013-05-08 08:30:00,
2013-05-08 10:40:00,66.0,54.3,30.03,South,171,0.0,5.0,66,0.00,BKN,OVC,0.00,0.0,WeatherDisplay:10.37,2013-05-08 08:40:00,
2013-05-08 10:50:00,68.5,55.9,30.03,WSW,241,0.0,0.0,64,0.00,BKN,OVC,0.00,0.0,WeatherDisplay:10.37,2013-05-08 08:50:00,
2013-05-08 11:00:00,67.6,55.0,30.03,West,263,0.0,0.0,64,0.00,BKN,OVC,0.00,0.0,WeatherDisplay:10.37,2013-05-08 09:00:00,
2013-05-08 11:10:00,67.3,55.1,30.03,SW,234,5.0,5.0,65,0.00,BKN,OVC,0.00,0.0,WeatherDisplay:10.37,2013-05-08 09:10:00,
2013-05-08 11:20:00,68.5,55.9,30.03,SW,226,3.0,5.0,64,0.00,BKN,OVC,0.00,0.0,WeatherDisplay:10.37,2013-05-08 09:20:00,
2013-05-08 11:30:00,67.8,54.8,30.03,SSW,210,2.0,3.0,63,0.00,BKN,OVC,0.00,0.0,WeatherDisplay:10.37,2013-05-08 09:30:00,
2013-05-08 11:40:00,68.7,55.6,30.03,SSW,207,0.0,4.0,63,0.00,BKN,OVC,0.00,0.0,WeatherDisplay:10.37,2013-05-08 09:40:00,
2013-05-08 11:50:00,69.3,55.2,30.00,SSW,198,6.0,6.0,61,0.00,BKN,OVC,0.00,0.0,WeatherDisplay:10.37,2013-05-08 09:50:00,
2013-05-08 12:00:00,68.0,54.5,30.00,SSW,207,3.0,6.0,62,0.00,BKN,OVC,0.00,0.0,WeatherDisplay:10.37,2013-05-08 10:00:00,
2013-05-08 12:10:00,67.8,54.8,30.00,SSW,195,0.0,5.0,63,0.00,BKN,OVC,0.00,0.0,WeatherDisplay:10.37,2013-05-08 10:10:00,
2013-05-08 12:20:00,70.0,55.9,30.03,SSW,199,6.0,6.0,61,0.00,BKN,OVC,0.00,0.0,WeatherDisplay:10.37,2013-05-08 10:20:00,
2013-05-08 12:30:00,72.1,57.9,30.00,SSW,208,5.0,6.0,61,0.00,BKN,OVC,0.00,0.0,WeatherDisplay:10.37,2013-05-08 10:30:00,
2013-05-08 12:40:00,70.0,54.5,30.00,WSW,253,7.0,7.0,58,0.00,BKN,OVC,0.00,0.0,WeatherDisplay:10.37,2013-05-08 10:40:00,
2013-05-08 12:50:00,68.5,54.6,30.00,SW,217,5.0,7.0,61,0.00,BKN,OVC,0.00,0.0,WeatherDisplay:10.37,2013-05-08 10:50:00,
2013-05-08 13:00:00,70.2,56.1,30.00,WSW,245,6.0,6.0,61,0.00,BKN,OVC,0.00,0.0,WeatherDisplay:10.37,2013-05-08 11:00:00,
2013-05-08 13:10:00,70.7,55.7,30.00,West,265,2.0,4.0,59,0.00,BKN,OVC,0.00,0.0,WeatherDisplay:10.37,2013-05-08 11:10:00,
2013-05-08 13:20:00,70.9,55.8,30.00,WSW,258,0.0,3.0,59,0.00,BKN,OVC,0.00,0.0,WeatherDisplay:10.37,2013-05-08 11:20:00,
2013-05-08 13:30:00,71.2,55.7,30.00,WSW,256,0.0,0.0,58,0.00,BKN,OVC,0.00,0.0,WeatherDisplay:10.37,2013-05-08 11:30:00,
2013-05-08 13:40:00,71.6,56.0,30.00,West,265,7.0,7.0,58,0.00,BKN,OVC,0.00,0.0,WeatherDisplay:10.37,2013-05-08 11:40:00,
2013-05-08 13:50:00,68.4,54.4,30.00,West,265,6.0,7.0,61,0.00,BKN,OVC,0.00,0.0,WeatherDisplay:10.37,2013-05-08 11:50:00,
2013-05-08 14:00:00,69.1,55.1,30.00,West,265,5.0,6.0,61,0.00,BKN,OVC,0.00,0.0,WeatherDisplay:10.37,2013-05-08 12:00:00,
2013-05-08 14:10:00,71.1,56.0,30.00,WNW,282,0.0,3.0,59,0.00,SCT,OVC,0.00,0.0,WeatherDisplay:10.37,2013-05-08 12:10:00,
2013-05-08 14:20:00,71.8,55.2,30.00,WSW,239,5.0,5.0,56,0.00,SCT,OVC,0.00,0.0,WeatherDisplay:10.37,2013-05-08 12:20:00,
2013-05-08 14:30:00,71.2,54.7,29.97,SW,223,2.0,5.0,56,0.00,SCT,OVC,0.00,0.0,WeatherDisplay:10.37,2013-05-08 12:30:00,
2013-05-08 14:40:00,74.5,57.8,29.97,SW,232,6.0,6.0,56,0.00,SCT,OVC,0.00,0.0,WeatherDisplay:10.37,2013-05-08 12:40:00,
2013-05-08 14:50:00,71.6,55.1,29.97,SW,220,6.0,6.0,56,0.00,SCT,OVC,0.00,0.0,WeatherDisplay:10.37,2013-05-08 12:50:00,
2013-05-08 15:00:00,70.2,54.7,29.97,SW,229,3.0,6.0,58,0.00,SCT,OVC,0.00,0.0,WeatherDisplay:10.37,2013-05-08 13:00:00,
2013-05-08 15:10:00,72.3,55.7,29.97,SSW,199,5.0,5.0,56,0.00,SCT,OVC,0.00,0.0,WeatherDisplay:10.37,2013-05-08 13:10:00,
2013-05-08 15:20:00,71.2,55.2,29.97,SSW,210,5.0,7.0,57,0.00,SCT,OVC,0.00,0.0,WeatherDisplay:10.37,2013-05-08 13:20:00,
2013-05-08 15:30:00,73.4,56.2,29.97,SSW,205,3.0,5.0,55,0.00,SCT,OVC,0.00,0.0,WeatherDisplay:10.37,2013-05-08 13:30:00,
2013-05-08 15:40:00,74.5,56.2,29.97,SW,218,9.0,9.0,53,0.00,SCT,OVC,0.00,0.0,WeatherDisplay:10.37,2013-05-08 13:40:00,
2013-05-08 15:50:00,71.6,54.6,29.97,SW,226,6.0,9.0,55,0.00,SCT,OVC,0.00,0.0,WeatherDisplay:10.37,2013-05-08 13:50:00,
2013-05-08 16:00:00,70.3,53.9,29.97,WSW,243,5.0,6.0,56,0.00,SCT,OVC,0.00,0.0,WeatherDisplay:10.37,2013-05-08 14:00:00,
2013-05-08 16:10:00,72.1,55.1,29.97,SW,220,9.0,9.0,55,0.00,SCT,OVC,0.00,0.0,WeatherDisplay:10.37,2013-05-08 14:10:00,
2013-05-08 16:20:00,72.7,54.6,29.97,WSW,254,9.0,10.0,53,0.00,SCT,OVC,0.00,0.0,WeatherDisplay:10.37,2013-05-08 14:20:00,
2013-05-08 16:30:00,74.1,54.8,29.97,WSW,257,9.0,10.0,51,0.00,SCT,OVC,0.00,0.0,WeatherDisplay:10.37,2013-05-08 14:30:00,
2013-05-08 16:40:00,74.1,54.8,29.97,West,269,6.0,9.0,51,0.00,SCT,OVC,0.00,0.0,WeatherDisplay:10.37,2013-05-08 14:40:00,
2013-05-08 16:50:00,74.5,54.1,29.94,WSW,250,7.0,7.0,49,0.00,SCT,OVC,0.00,0.0,WeatherDisplay:10.37,2013-05-08 14:50:00,
2013-05-08 17:00:00,72.1,52.5,29.97,SW,225,6.0,7.0,50,0.00,SCT,OVC,0.00,0.0,WeatherDisplay:10.37,2013-05-08 15:00:00,
2013-05-08 17:10:00,73.0,53.8,29.97,WSW,244,7.0,7.0,51,0.00,FEW,OVC,0.00,0.0,WeatherDisplay:10.37,2013-05-08 15:10:00,
2013-05-08 17:20:00,74.1,54.3,29.94,WSW,255,7.0,7.0,50,0.00,FEW,OVC,0.00,0.0,WeatherDisplay:10.37,2013-05-08 15:20:00,
2013-05-08 17:30:00,74.3,54.5,29.94,WSW,239,6.0,7.0,50,0.00,FEW,OVC,0.00,0.0,WeatherDisplay:10.37,2013-05-08 15:30:00,
2013-05-08 17:40:00,71.2,53.2,29.94,SSW,204,3.0,7.0,53,0.00,FEW,OVC,0.00,0.0,WeatherDisplay:10.37,2013-05-08 15:40:00,
2013-05-08 17:50:00,73.4,55.2,29.94,SSW,205,3.0,6.0,53,0.00,FEW,OVC,0.00,0.0,WeatherDisplay:10.37,2013-05-08 15:50:00,
2013-05-08 18:00:00,74.5,56.2,29.94,SW,236,7.0,7.0,53,0.00,FEW,OVC,0.00,0.0,WeatherDisplay:10.37,2013-05-08 16:00:00,
2013-05-08 18:10:00,72.9,54.2,29.94,WSW,249,2.0,5.0,52,0.00,FEW,OVC,0.00,0.0,WeatherDisplay:10.37,2013-05-08 16:10:00,
2013-05-08 18:20:00,72.1,54.6,29.94,West,268,5.0,5.0,54,0.00,FEW,OVC,0.00,0.0,WeatherDisplay:10.37,2013-05-08 16:20:00,
2013-05-08 18:30:00,71.2,54.2,29.97,West,262,3.0,5.0,55,0.00,FEW,OVC,0.00,0.0,WeatherDisplay:10.37,2013-05-08 16:30:00,
2013-05-08 18:40:00,70.5,54.5,29.97,West,260,1.0,3.0,57,0.00,FEW,OVC,0.00,0.0,WeatherDisplay:10.37,2013-05-08 16:40:00,
2013-05-08 18:50:00,68.4,53.5,29.94,SSW,207,5.0,5.0,59,0.00,FEW,OVC,0.00,0.0,WeatherDisplay:10.37,2013-05-08 16:50:00,
2013-05-08 19:00:00,67.8,53.4,29.94,SSW,205,2.0,5.0,60,0.00,FEW,OVC,0.00,0.0,WeatherDisplay:10.37,2013-05-08 17:00:00,
2013-05-08 19:10:00,67.1,52.7,29.94,SSW,208,2.0,5.0,60,0.00,FEW,OVC,0.00,0.0,WeatherDisplay:10.37,2013-05-08 17:10:00,
2013-05-08 19:20:00,66.4,53.0,29.94,SW,234,0.0,2.0,62,0.00,FEW,OVC,0.00,0.0,WeatherDisplay:10.37,2013-05-08 17:20:00,
2013-05-08 19:30:00,66.2,52.8,29.97,SW,226,0.0,0.0,62,0.00,FEW,OVC,0.00,0.0,WeatherDisplay:10.37,2013-05-08 17:30:00,
2013-05-08 19:40:00,65.5,53.0,29.97,SW,236,0.0,0.0,64,0.00,FEW,OVC,0.00,0.0,WeatherDisplay:10.37,2013-05-08 17:40:00,
2013-05-08 19:50:00,64.8,52.7,29.97,North,1,0.0,0.0,65,0.00,FEW,OVC,0.00,0.0,WeatherDisplay:10.37,2013-05-08 17:50:00,
2013-05-08 20:00:00,64.8,52.7,29.97,North,3,0.0,0.0,65,0.00,FEW,OVC,0.00,0.0,WeatherDisplay:10.37,2013-05-08 18:00:00,
2013-05-08 20:10:00,64.4,52.8,29.97,SE,145,0.0,0.0,66,0.00,OVC,OVC,0.00,0.0,WeatherDisplay:10.37,2013-05-08 18:10:00,
2013-05-08 20:20:00,63.0,52.2,29.97,West,260,0.0,0.0,68,0.00,OVC,OVC,0.00,0.0,WeatherDisplay:10.37,2013-05-08 18:20:00,
2013-05-08 20:30:00,62.1,52.2,29.97,ESE,115,0.0,0.0,70,0.00,OVC,OVC,0.00,0.0,WeatherDisplay:10.37,2013-05-08 18:30:00,
2013-05-08 20:40:00,60.6,50.8,29.97,WSW,237,0.0,0.0,70,0.00,OVC,OVC,0.00,0.0,WeatherDisplay:10.37,2013-05-08 18:40:00,
2013-05-08 20:50:00,59.0,50.0,29.97,WSW,252,0.0,0.0,72,0.00,OVC,OVC,0.00,0.0,WeatherDisplay:10.37,2013-05-08 18:50:00,
2013-05-08 21:00:00,58.3,49.7,29.97,SSE,165,0.0,0.0,73,0.00,CLR,OVC,0.00,0.0,WeatherDisplay:10.37,2013-05-08 19:00:00,
2013-05-08 21:10:00,57.6,49.3,29.97,SW,218,0.0,0.0,74,0.00,CLR,OVC,0.00,0.0,WeatherDisplay:10.37,2013-05-08 19:10:00,
2013-05-08 21:20:00,57.0,49.2,29.97,NW,321,0.0,0.0,75,0.00,CLR,OVC,0.00,0.0,WeatherDisplay:10.37,2013-05-08 19:20:00,
2013-05-08 21:30:00,56.7,48.8,29.97,WSW,245,0.0,0.0,75,0.00,CLR,OVC,0.00,0.0,WeatherDisplay:10.37,2013-05-08 19:30:00,
2013-05-08 21:40:00,55.4,47.6,29.97,SSW,210,0.0,0.0,75,0.00,CLR,OVC,0.00,0.0,WeatherDisplay:10.37,2013-05-08 19:40:00,
2013-05-08 21:50:00,54.3,46.9,29.97,WSW,254,0.0,0.0,76,0.00,CLR,OVC,0.00,0.0,WeatherDisplay:10.37,2013-05-08 19:50:00,
2013-05-08 22:00:00,54.3,46.9,29.97,WSW,243,0.0,0.0,76,0.00,CLR,OVC,0.00,0.0,WeatherDisplay:10.37,2013-05-08 20:00:00,
2013-05-08 22:10:00,54.1,47.1,29.97,SW,225,0.0,0.0,77,0.00,CLR,OVC,0.00,0.0,WeatherDisplay:10.37,2013-05-08 20:10:00,
2013-05-08 22:20:00,54.0,46.9,29.97,SW,229,0.0,0.0,77,0.00,CLR,OVC,0.00,0.0,WeatherDisplay:10.37,2013-05-08 20:20:00,
2013-05-08 22:30:00,54.0,47.3,29.97,SSW,204,0.0,0.0,78,0.00,CLR,OVC,0.00,0.0,WeatherDisplay:10.37,2013-05-08 20:30:00,
2013-05-08 22:40:00,55.0,48.3,29.97,SSW,202,0.0,0.0,78,0.00,CLR,OVC,0.00,0.0,WeatherDisplay:10.37,2013-05-08 20:40:00,
2013-05-08 22:50:00,57.0,50.2,30.00,SSW,206,2.0,3.0,78,0.00,CLR,OVC,0.00,0.0,WeatherDisplay:10.37,2013-05-08 20:50:00,
2013-05-08 23:00:00,58.1,50.9,30.00,SSW,199,2.0,2.0,77,0.00,CLR,OVC,0.00,0.0,WeatherDisplay:10.37,2013-05-08 21:00:00,
2013-05-08 23:10:00,59.0,50.7,30.00,South,188,1.0,3.0,74,0.00,CLR,OVC,0.00,0.0,WeatherDisplay:10.37,2013-05-08 21:10:00,
2013-05-08 23:20:00,59.4,50.7,30.00,SSW,205,3.0,5.0,73,0.00,CLR,OVC,0.00,0.0,WeatherDisplay:10.37,2013-05-08 21:20:00,
2013-05-08 23:30:00,59.5,50.5,30.00,SW,217,5.0,5.0,72,0.00,CLR,OVC,0.00,0.0,WeatherDisplay:10.37,2013-05-08 21:30:00,
2013-05-08 23:40:00,59.5,50.5,30.00,SW,220,3.0,5.0,72,0.00,CLR,OVC,0.00,0.0,WeatherDisplay:10.37,2013-05-08 21:40:00,
2013-05-08 23:50:00,59.4,50.3,29.97,SW,218,1.0,3.0,72,0.00,CLR,OVC,0.00,0.0,WeatherDisplay:10.37,2013-05-08 21:50:00,